LAN895 SCCI-EGYP
Flight info
| Callsign | LAN895 |
|---|---|
| Flight time | 1h 29m |
| Altitude | 28000 |
| Route | D022J DCT PALIX/N0407F290 DCT GAL UW54 MTP DCT YP432 DCT YP430 |
| Aircraft | F28/M-SDFIRWY/H |
Departure
| Time | 2026-04-25 18:30 |
|---|---|
| Airport | President Carlos Ibáñez International Airport (SCCI) |
Arrival
| Time | 2026-04-25 20:00 |
|---|---|
| Airport | Mount Pleasant Airport / RAF Mount Pleasant (EGYP) |
| Time | Latitude | Longitude | Altitude | Speed | Heading |
|---|---|---|---|---|---|
| 2026-04-25 17:57 | -53.00462 | -70.84450 | 112 ft | 0 kts | 179° |
| 2026-04-25 18:22 | -53.00454 | -70.84450 | 113 ft | 4 kts | 179° |
| 2026-04-25 18:23 | -53.00427 | -70.84452 | 112 ft | 4 kts | 179° |
| 2026-04-25 18:23 | -53.00405 | -70.84452 | 112 ft | 4 kts | 169° |
| 2026-04-25 18:23 | -53.00386 | -70.84471 | 110 ft | 4 kts | 111° |
| 2026-04-25 18:23 | -53.00382 | -70.84511 | 110 ft | 2 kts | 89° |
| 2026-04-25 18:24 | -53.00382 | -70.84513 | 110 ft | 0 kts | 89° |
| 2026-04-25 18:25 | -53.00381 | -70.84502 | 111 ft | 4 kts | 89° |
| 2026-04-25 18:25 | -53.00379 | -70.84399 | 113 ft | 6 kts | 79° |
| 2026-04-25 18:26 | -53.00371 | -70.84380 | 113 ft | 3 kts | 38° |
| 2026-04-25 18:26 | -53.00350 | -70.84373 | 113 ft | 4 kts | 359° |
| 2026-04-25 18:26 | -53.00314 | -70.84374 | 113 ft | 6 kts | 360° |
| 2026-04-25 18:26 | -53.00263 | -70.84367 | 113 ft | 8 kts | 25° |
| 2026-04-25 18:27 | -53.00246 | -70.84279 | 112 ft | 10 kts | 90° |
| 2026-04-25 18:27 | -53.00246 | -70.84196 | 112 ft | 12 kts | 90° |
| 2026-04-25 18:27 | -53.00245 | -70.84042 | 111 ft | 15 kts | 88° |
| 2026-04-25 18:27 | -53.00242 | -70.83854 | 109 ft | 18 kts | 89° |
| 2026-04-25 18:28 | -53.00239 | -70.83633 | 108 ft | 20 kts | 89° |
| 2026-04-25 18:28 | -53.00228 | -70.83428 | 106 ft | 10 kts | 52° |
| 2026-04-25 18:28 | -53.00172 | -70.83416 | 106 ft | 9 kts | 0° |
| 2026-04-25 18:29 | -53.00061 | -70.83460 | 103 ft | 3 kts | 278° |
| 2026-04-25 18:29 | -53.00061 | -70.83467 | 103 ft | 0 kts | 268° |
| 2026-04-25 18:30 | -53.00075 | -70.84532 | 116 ft | 118 kts | 269° |
| 2026-04-25 18:30 | -53.00115 | -70.86246 | 353 ft | 171 kts | 264° |
| 2026-04-25 18:30 | -53.00043 | -70.88476 | 1105 ft | 213 kts | 266° |
| 2026-04-25 18:30 | -52.99925 | -70.91084 | 1821 ft | 235 kts | 269° |
| 2026-04-25 18:31 | -52.99789 | -70.93871 | 2370 ft | 249 kts | 268° |
| 2026-04-25 18:31 | -52.99647 | -70.96831 | 2904 ft | 266 kts | 268° |
| 2026-04-25 18:31 | -52.99504 | -70.99917 | 3426 ft | 269 kts | 268° |
| 2026-04-25 18:31 | -52.99347 | -71.02989 | 3931 ft | 266 kts | 271° |
| 2026-04-25 18:32 | -52.98691 | -71.05869 | 4433 ft | 273 kts | 300° |
| 2026-04-25 18:32 | -52.97245 | -71.07909 | 4916 ft | 281 kts | 329° |
| 2026-04-25 18:32 | -52.95322 | -71.08715 | 5427 ft | 290 kts | 352° |
| 2026-04-25 18:32 | -52.93324 | -71.08920 | 5935 ft | 294 kts | 355° |
| 2026-04-25 18:33 | -52.91234 | -71.09028 | 6463 ft | 300 kts | 357° |
| 2026-04-25 18:33 | -52.89126 | -71.09051 | 6955 ft | 308 kts | 4° |
| 2026-04-25 18:33 | -52.87066 | -71.08020 | 7448 ft | 313 kts | 31° |
| 2026-04-25 18:33 | -52.85463 | -71.05715 | 7962 ft | 308 kts | 58° |
| 2026-04-25 18:34 | -52.84588 | -71.02572 | 8488 ft | 298 kts | 84° |
| 2026-04-25 18:34 | -52.84599 | -70.99239 | 9049 ft | 287 kts | 107° |
| 2026-04-25 18:34 | -52.85036 | -70.96031 | 9586 ft | 286 kts | 110° |
| 2026-04-25 18:34 | -52.85535 | -70.92828 | 10095 ft | 287 kts | 111° |
| 2026-04-25 18:35 | -52.86042 | -70.89606 | 10524 ft | 291 kts | 111° |
| 2026-04-25 18:35 | -52.86577 | -70.86354 | 10943 ft | 296 kts | 110° |
| 2026-04-25 18:35 | -52.86991 | -70.82923 | 11368 ft | 312 kts | 103° |
| 2026-04-25 18:35 | -52.87165 | -70.79255 | 11793 ft | 327 kts | 96° |
| 2026-04-25 18:36 | -52.87108 | -70.75409 | 12245 ft | 341 kts | 91° |
| 2026-04-25 18:36 | -52.86842 | -70.71438 | 12692 ft | 355 kts | 83° |
| 2026-04-25 18:36 | -52.85878 | -70.67586 | 13141 ft | 375 kts | 60° |
| 2026-04-25 18:36 | -52.84066 | -70.64365 | 13604 ft | 390 kts | 39° |
| 2026-04-25 18:37 | -52.81692 | -70.62068 | 14023 ft | 400 kts | 28° |
| 2026-04-25 18:37 | -52.79182 | -70.59975 | 14441 ft | 407 kts | 29° |
| 2026-04-25 18:37 | -52.76664 | -70.57762 | 14856 ft | 413 kts | 31° |
| 2026-04-25 18:37 | -52.74183 | -70.55358 | 15279 ft | 414 kts | 34° |
| 2026-04-25 18:38 | -52.71780 | -70.52820 | 15714 ft | 416 kts | 36° |
| 2026-04-25 18:38 | -52.69378 | -70.50154 | 16152 ft | 416 kts | 37° |
| 2026-04-25 18:38 | -52.66999 | -70.47436 | 16586 ft | 416 kts | 38° |
| 2026-04-25 18:38 | -52.64617 | -70.44694 | 17026 ft | 418 kts | 38° |
| 2026-04-25 18:39 | -52.62218 | -70.41927 | 17459 ft | 421 kts | 38° |
| 2026-04-25 18:39 | -52.59812 | -70.39158 | 17910 ft | 424 kts | 38° |
| 2026-04-25 18:39 | -52.57390 | -70.36382 | 18331 ft | 426 kts | 38° |
| 2026-04-25 18:39 | -52.54939 | -70.33628 | 18734 ft | 427 kts | 37° |
| 2026-04-25 18:40 | -52.52475 | -70.30878 | 19141 ft | 428 kts | 37° |
| 2026-04-25 18:40 | -52.50015 | -70.28110 | 19537 ft | 428 kts | 38° |
| 2026-04-25 18:40 | -52.47565 | -70.25344 | 19956 ft | 428 kts | 38° |
| 2026-04-25 18:40 | -52.45115 | -70.22582 | 20363 ft | 428 kts | 38° |
| 2026-04-25 18:41 | -52.42663 | -70.19824 | 20788 ft | 427 kts | 38° |
| 2026-04-25 18:41 | -52.40205 | -70.17067 | 21212 ft | 426 kts | 38° |
| 2026-04-25 18:41 | -52.37760 | -70.14333 | 21643 ft | 426 kts | 38° |
| 2026-04-25 18:41 | -52.35324 | -70.11617 | 22073 ft | 424 kts | 38° |
| 2026-04-25 18:42 | -52.32879 | -70.08901 | 22526 ft | 423 kts | 37° |
| 2026-04-25 18:42 | -52.31265 | -70.07114 | 22822 ft | 422 kts | 37° |
| 2026-04-25 18:42 | -52.28046 | -70.03561 | 23418 ft | 420 kts | 37° |
| 2026-04-25 18:42 | -52.25620 | -70.00907 | 23765 ft | 420 kts | 37° |
| 2026-04-25 18:43 | -52.23199 | -69.98249 | 24066 ft | 420 kts | 38° |
| 2026-04-25 18:43 | -52.20787 | -69.95572 | 24382 ft | 420 kts | 38° |
| 2026-04-25 18:43 | -52.18376 | -69.92887 | 24694 ft | 420 kts | 38° |
| 2026-04-25 18:43 | -52.15963 | -69.90209 | 25041 ft | 419 kts | 38° |
| 2026-04-25 18:44 | -52.13541 | -69.87564 | 25375 ft | 419 kts | 37° |
| 2026-04-25 18:44 | -52.11120 | -69.84936 | 25711 ft | 418 kts | 38° |
| 2026-04-25 18:44 | -52.08714 | -69.82295 | 26043 ft | 417 kts | 38° |
| 2026-04-25 18:44 | -52.06298 | -69.79674 | 26380 ft | 416 kts | 37° |
| 2026-04-25 18:45 | -52.03879 | -69.77103 | 26713 ft | 415 kts | 37° |
| 2026-04-25 18:45 | -52.01447 | -69.74570 | 27056 ft | 414 kts | 36° |
| 2026-04-25 18:45 | -51.99020 | -69.72064 | 27409 ft | 413 kts | 36° |
| 2026-04-25 18:45 | -51.96594 | -69.69571 | 27687 ft | 413 kts | 36° |
| 2026-04-25 18:46 | -51.94159 | -69.67040 | 27788 ft | 418 kts | 37° |
| 2026-04-25 18:46 | -51.91692 | -69.64451 | 27811 ft | 425 kts | 36° |
| 2026-04-25 18:46 | -51.89298 | -69.61968 | 27812 ft | 432 kts | 36° |
| 2026-04-25 18:46 | -51.86776 | -69.59361 | 27834 ft | 439 kts | 36° |
| 2026-04-25 18:47 | -51.84182 | -69.56697 | 27830 ft | 445 kts | 35° |
| 2026-04-25 18:47 | -51.81573 | -69.54038 | 27819 ft | 442 kts | 35° |
| 2026-04-25 18:47 | -51.78972 | -69.51356 | 27812 ft | 443 kts | 36° |
| 2026-04-25 18:47 | -51.76386 | -69.48672 | 27808 ft | 441 kts | 36° |
| 2026-04-25 18:48 | -51.73808 | -69.45994 | 27804 ft | 442 kts | 36° |
| 2026-04-25 18:48 | -51.71199 | -69.43331 | 27806 ft | 442 kts | 35° |
| 2026-04-25 18:48 | -51.68601 | -69.40683 | 27801 ft | 440 kts | 37° |
| 2026-04-25 18:48 | -51.66283 | -69.37546 | 27800 ft | 433 kts | 51° |
| 2026-04-25 18:49 | -51.64382 | -69.33837 | 27809 ft | 427 kts | 61° |
| 2026-04-25 18:49 | -51.63037 | -69.29645 | 27809 ft | 419 kts | 76° |
| 2026-04-25 18:49 | -51.62351 | -69.25195 | 27827 ft | 412 kts | 87° |
| 2026-04-25 18:49 | -51.62141 | -69.20628 | 27814 ft | 408 kts | 94° |
| 2026-04-25 18:50 | -51.62224 | -69.16064 | 27808 ft | 406 kts | 99° |
| 2026-04-25 18:50 | -51.62464 | -69.11546 | 27807 ft | 406 kts | 101° |
| 2026-04-25 18:50 | -51.62774 | -69.07037 | 27804 ft | 406 kts | 102° |
| 2026-04-25 18:50 | -51.63112 | -69.02509 | 27801 ft | 406 kts | 102° |
| 2026-04-25 18:51 | -51.63458 | -68.98012 | 27796 ft | 404 kts | 102° |
| 2026-04-25 18:51 | -51.63677 | -68.95039 | 27796 ft | 403 kts | 102° |
| 2026-04-25 18:51 | -51.64095 | -68.89046 | 27792 ft | 401 kts | 101° |
| 2026-04-25 18:51 | -51.64398 | -68.84570 | 27792 ft | 403 kts | 101° |
| 2026-04-25 18:52 | -51.64699 | -68.80076 | 27790 ft | 404 kts | 101° |
| 2026-04-25 18:52 | -51.64998 | -68.75578 | 27817 ft | 404 kts | 101° |
| 2026-04-25 18:52 | -51.65295 | -68.71072 | 27799 ft | 405 kts | 100° |
| 2026-04-25 18:52 | -51.65583 | -68.66561 | 27792 ft | 406 kts | 100° |
| 2026-04-25 18:53 | -51.65867 | -68.62032 | 27793 ft | 406 kts | 100° |
| 2026-04-25 18:53 | -51.66147 | -68.57518 | 27792 ft | 406 kts | 100° |
| 2026-04-25 18:53 | -51.66422 | -68.53038 | 27792 ft | 406 kts | 100° |
| 2026-04-25 18:53 | -51.66698 | -68.48509 | 27792 ft | 407 kts | 100° |
| 2026-04-25 18:54 | -51.67246 | -68.39442 | 27795 ft | 407 kts | 100° |
| 2026-04-25 18:54 | -51.67516 | -68.34901 | 27795 ft | 407 kts | 100° |
| 2026-04-25 18:54 | -51.67785 | -68.30361 | 27795 ft | 407 kts | 100° |
| 2026-04-25 18:55 | -51.68065 | -68.25819 | 27794 ft | 407 kts | 100° |
| 2026-04-25 18:55 | -51.68344 | -68.21270 | 27793 ft | 407 kts | 100° |
| 2026-04-25 18:55 | -51.68621 | -68.16728 | 27802 ft | 408 kts | 99° |
| 2026-04-25 18:55 | -51.68904 | -68.12187 | 27793 ft | 408 kts | 100° |
| 2026-04-25 18:56 | -51.69173 | -68.07618 | 27786 ft | 409 kts | 99° |
| 2026-04-25 18:56 | -51.69422 | -68.03047 | 27786 ft | 409 kts | 99° |
| 2026-04-25 18:56 | -51.69661 | -67.98476 | 27780 ft | 409 kts | 98° |
| 2026-04-25 18:56 | -51.69887 | -67.93901 | 27780 ft | 410 kts | 98° |
| 2026-04-25 18:57 | -51.70101 | -67.89321 | 27784 ft | 410 kts | 98° |
| 2026-04-25 18:57 | -51.70316 | -67.84732 | 27783 ft | 410 kts | 98° |
| 2026-04-25 18:57 | -51.70536 | -67.80143 | 27783 ft | 410 kts | 98° |
| 2026-04-25 18:57 | -51.70609 | -67.78655 | 27782 ft | 410 kts | 98° |
| 2026-04-25 18:58 | -51.70976 | -67.71030 | 27769 ft | 410 kts | 98° |
| 2026-04-25 18:58 | -51.71415 | -67.61841 | 27772 ft | 411 kts | 98° |
| 2026-04-25 18:58 | -51.71622 | -67.57247 | 27770 ft | 412 kts | 97° |
| 2026-04-25 18:59 | -51.72029 | -67.48020 | 27768 ft | 412 kts | 97° |
| 2026-04-25 18:59 | -51.72444 | -67.38782 | 27769 ft | 413 kts | 98° |
| 2026-04-25 19:00 | -51.72860 | -67.29518 | 27763 ft | 414 kts | 97° |
| 2026-04-25 19:00 | -51.73059 | -67.24899 | 27763 ft | 414 kts | 98° |
| 2026-04-25 19:01 | -51.73453 | -67.15687 | 27763 ft | 414 kts | 98° |
| 2026-04-25 19:01 | -51.73647 | -67.11046 | 27785 ft | 415 kts | 97° |
| 2026-04-25 19:01 | -51.73850 | -67.06397 | 27768 ft | 415 kts | 97° |
| 2026-04-25 19:01 | -51.74060 | -67.01748 | 27762 ft | 416 kts | 97° |
| 2026-04-25 19:02 | -51.74508 | -66.92425 | 27761 ft | 417 kts | 97° |
| 2026-04-25 19:02 | -51.74737 | -66.87770 | 27753 ft | 417 kts | 97° |
| 2026-04-25 19:02 | -51.74973 | -66.83100 | 27753 ft | 417 kts | 97° |
| 2026-04-25 19:03 | -51.75286 | -66.76856 | 27751 ft | 417 kts | 97° |
| 2026-04-25 19:03 | -51.75670 | -66.69073 | 27750 ft | 418 kts | 97° |
| 2026-04-25 19:03 | -51.75894 | -66.64403 | 27745 ft | 418 kts | 97° |
| 2026-04-25 19:04 | -51.76343 | -66.55026 | 27747 ft | 418 kts | 96° |
| 2026-04-25 19:04 | -51.76575 | -66.50352 | 27746 ft | 419 kts | 96° |
| 2026-04-25 19:05 | -51.77004 | -66.40959 | 27741 ft | 420 kts | 96° |
| 2026-04-25 19:05 | -51.77444 | -66.31589 | 27741 ft | 421 kts | 96° |
| 2026-04-25 19:05 | -51.77650 | -66.26879 | 27741 ft | 421 kts | 96° |
| 2026-04-25 19:06 | -51.77854 | -66.22155 | 27737 ft | 422 kts | 96° |
| 2026-04-25 19:06 | -51.78277 | -66.12707 | 27739 ft | 422 kts | 96° |
| 2026-04-25 19:06 | -51.78473 | -66.07959 | 27746 ft | 422 kts | 96° |
| 2026-04-25 19:07 | -51.78868 | -65.98472 | 27725 ft | 423 kts | 95° |
| 2026-04-25 19:07 | -51.79054 | -65.93733 | 27724 ft | 424 kts | 95° |
| 2026-04-25 19:08 | -51.79370 | -65.84215 | 27737 ft | 425 kts | 95° |
| 2026-04-25 19:08 | -51.79532 | -65.79444 | 27734 ft | 425 kts | 95° |
| 2026-04-25 19:09 | -51.80011 | -65.65198 | 27731 ft | 426 kts | 94° |
| 2026-04-25 19:09 | -51.80063 | -65.63584 | 27724 ft | 426 kts | 95° |
| 2026-04-25 19:09 | -51.80478 | -65.50861 | 27726 ft | 426 kts | 94° |
| 2026-04-25 19:10 | -51.80622 | -65.46072 | 27728 ft | 426 kts | 94° |
| 2026-04-25 19:10 | -51.80779 | -65.41277 | 27723 ft | 427 kts | 95° |
| 2026-04-25 19:10 | -51.80935 | -65.36503 | 27729 ft | 427 kts | 94° |
| 2026-04-25 19:10 | -51.81069 | -65.31700 | 27715 ft | 427 kts | 94° |
| 2026-04-25 19:11 | -51.81204 | -65.26911 | 27715 ft | 427 kts | 94° |
| 2026-04-25 19:11 | -51.81352 | -65.22119 | 27724 ft | 427 kts | 95° |
| 2026-04-25 19:11 | -51.81500 | -65.17322 | 27724 ft | 427 kts | 94° |
| 2026-04-25 19:11 | -51.81626 | -65.12518 | 27719 ft | 427 kts | 94° |
| 2026-04-25 19:12 | -51.81753 | -65.07727 | 27732 ft | 427 kts | 94° |
| 2026-04-25 19:12 | -51.81891 | -65.02917 | 27715 ft | 428 kts | 94° |
| 2026-04-25 19:12 | -51.82030 | -64.98126 | 27715 ft | 428 kts | 94° |
| 2026-04-25 19:12 | -51.82171 | -64.93321 | 27722 ft | 428 kts | 94° |
| 2026-04-25 19:13 | -51.82300 | -64.88523 | 27714 ft | 428 kts | 94° |
| 2026-04-25 19:13 | -51.82419 | -64.83718 | 27712 ft | 428 kts | 93° |
| 2026-04-25 19:13 | -51.82532 | -64.78892 | 27716 ft | 429 kts | 93° |
| 2026-04-25 19:13 | -51.82642 | -64.74068 | 27708 ft | 429 kts | 93° |
| 2026-04-25 19:14 | -51.82750 | -64.69246 | 27714 ft | 429 kts | 93° |
| 2026-04-25 19:14 | -51.82784 | -64.67685 | 27703 ft | 429 kts | 93° |
| 2026-04-25 19:14 | -51.82975 | -64.59600 | 27711 ft | 430 kts | 94° |
| 2026-04-25 19:14 | -51.83061 | -64.56399 | 27714 ft | 430 kts | 94° |
| 2026-04-25 19:15 | -51.83210 | -64.50005 | 27714 ft | 430 kts | 93° |
| 2026-04-25 19:15 | -51.83313 | -64.45172 | 27706 ft | 430 kts | 93° |
| 2026-04-25 19:15 | -51.83423 | -64.40346 | 27706 ft | 430 kts | 94° |
| 2026-04-25 19:15 | -51.83535 | -64.35511 | 27691 ft | 430 kts | 93° |
| 2026-04-25 19:16 | -51.83642 | -64.30668 | 27699 ft | 431 kts | 93° |
| 2026-04-25 19:16 | -51.83714 | -64.27394 | 27705 ft | 431 kts | 93° |
| 2026-04-25 19:16 | -51.83819 | -64.22549 | 27703 ft | 431 kts | 93° |
| 2026-04-25 19:16 | -51.83922 | -64.17696 | 27697 ft | 432 kts | 93° |
| 2026-04-25 19:17 | -51.84023 | -64.12845 | 27701 ft | 432 kts | 93° |
| 2026-04-25 19:17 | -51.84121 | -64.08052 | 27693 ft | 432 kts | 93° |
| 2026-04-25 19:17 | -51.84217 | -64.03185 | 27713 ft | 433 kts | 93° |
| 2026-04-25 19:17 | -51.84307 | -63.98310 | 27704 ft | 433 kts | 92° |
| 2026-04-25 19:18 | -51.84395 | -63.93442 | 27702 ft | 433 kts | 92° |
| 2026-04-25 19:18 | -51.84480 | -63.88576 | 27700 ft | 434 kts | 92° |
| 2026-04-25 19:18 | -51.84564 | -63.83697 | 27699 ft | 434 kts | 92° |
| 2026-04-25 19:18 | -51.84646 | -63.78829 | 27692 ft | 434 kts | 92° |
| 2026-04-25 19:19 | -51.84732 | -63.73947 | 27693 ft | 434 kts | 92° |
| 2026-04-25 19:19 | -51.84818 | -63.69049 | 27693 ft | 434 kts | 92° |
| 2026-04-25 19:19 | -51.84903 | -63.64164 | 27690 ft | 435 kts | 92° |
| 2026-04-25 19:19 | -51.84959 | -63.60918 | 27690 ft | 435 kts | 92° |
| 2026-04-25 19:20 | -51.85070 | -63.54372 | 27690 ft | 435 kts | 92° |
| 2026-04-25 19:20 | -51.85149 | -63.49486 | 27690 ft | 435 kts | 92° |
| 2026-04-25 19:20 | -51.85212 | -63.44651 | 27690 ft | 435 kts | 92° |
| 2026-04-25 19:20 | -51.85281 | -63.39750 | 27690 ft | 435 kts | 92° |
| 2026-04-25 19:21 | -51.85351 | -63.34851 | 27694 ft | 436 kts | 92° |
| 2026-04-25 19:21 | -51.85454 | -63.25043 | 27673 ft | 436 kts | 92° |
| 2026-04-25 19:21 | -51.85507 | -63.20148 | 27679 ft | 436 kts | 91° |
| 2026-04-25 19:22 | -51.85554 | -63.15227 | 27682 ft | 436 kts | 92° |
| 2026-04-25 19:22 | -51.85617 | -63.10316 | 27685 ft | 436 kts | 92° |
| 2026-04-25 19:22 | -51.85740 | -63.00498 | 27702 ft | 437 kts | 92° |
| 2026-04-25 19:23 | -51.85798 | -62.95572 | 27691 ft | 438 kts | 92° |
| 2026-04-25 19:23 | -51.85882 | -62.85717 | 27686 ft | 438 kts | 91° |
| 2026-04-25 19:23 | -51.85927 | -62.80794 | 27679 ft | 438 kts | 92° |
| 2026-04-25 19:24 | -51.85977 | -62.75861 | 27679 ft | 438 kts | 92° |
| 2026-04-25 19:24 | -51.86013 | -62.70942 | 27672 ft | 438 kts | 91° |
| 2026-04-25 19:24 | -51.86055 | -62.61084 | 27679 ft | 438 kts | 91° |
| 2026-04-25 19:25 | -51.86143 | -62.51264 | 27680 ft | 439 kts | 91° |
| 2026-04-25 19:25 | -51.86181 | -62.46338 | 27679 ft | 439 kts | 91° |
| 2026-04-25 19:25 | -51.86225 | -62.41401 | 27676 ft | 439 kts | 91° |
| 2026-04-25 19:26 | -51.86272 | -62.36452 | 27676 ft | 439 kts | 91° |
| 2026-04-25 19:26 | -51.86303 | -62.31506 | 27676 ft | 439 kts | 91° |
| 2026-04-25 19:26 | -51.86322 | -62.26560 | 27676 ft | 439 kts | 91° |
| 2026-04-25 19:26 | -51.86353 | -62.21608 | 27676 ft | 440 kts | 91° |
| 2026-04-25 19:27 | -51.86390 | -62.16665 | 27676 ft | 440 kts | 91° |
| 2026-04-25 19:27 | -51.86413 | -62.13398 | 27672 ft | 440 kts | 91° |
| 2026-04-25 19:27 | -51.86429 | -62.06765 | 27674 ft | 440 kts | 90° |
| 2026-04-25 19:27 | -51.86445 | -62.01861 | 27695 ft | 440 kts | 91° |
| 2026-04-25 19:28 | -51.86472 | -61.96909 | 27681 ft | 441 kts | 91° |
| 2026-04-25 19:28 | -51.86501 | -61.91938 | 27676 ft | 441 kts | 91° |
| 2026-04-25 19:28 | -51.86531 | -61.86961 | 27672 ft | 441 kts | 91° |
| 2026-04-25 19:28 | -51.86547 | -61.82000 | 27668 ft | 441 kts | 90° |
| 2026-04-25 19:29 | -51.86545 | -61.77037 | 27668 ft | 441 kts | 91° |
| 2026-04-25 19:29 | -51.86556 | -61.72063 | 27668 ft | 441 kts | 91° |
| 2026-04-25 19:29 | -51.86574 | -61.67083 | 27667 ft | 442 kts | 91° |
| 2026-04-25 19:29 | -51.86581 | -61.62118 | 27667 ft | 442 kts | 90° |
| 2026-04-25 19:30 | -51.86572 | -61.57146 | 27660 ft | 442 kts | 90° |
| 2026-04-25 19:30 | -51.86574 | -61.52245 | 27663 ft | 442 kts | 91° |
| 2026-04-25 19:30 | -51.86586 | -61.47271 | 27667 ft | 442 kts | 91° |
| 2026-04-25 19:30 | -51.86582 | -61.42292 | 27666 ft | 442 kts | 90° |
| 2026-04-25 19:31 | -51.86564 | -61.37324 | 27665 ft | 442 kts | 90° |
| 2026-04-25 19:31 | -51.86560 | -61.32283 | 27664 ft | 442 kts | 90° |
| 2026-04-25 19:31 | -51.86566 | -61.27360 | 27665 ft | 442 kts | 90° |
| 2026-04-25 19:31 | -51.86554 | -61.22380 | 27668 ft | 443 kts | 90° |
| 2026-04-25 19:32 | -51.86527 | -61.17390 | 27664 ft | 443 kts | 90° |
| 2026-04-25 19:32 | -51.86516 | -61.12413 | 27665 ft | 443 kts | 90° |
| 2026-04-25 19:32 | -51.86513 | -61.07430 | 27656 ft | 443 kts | 90° |
| 2026-04-25 19:32 | -51.86500 | -61.04135 | 27658 ft | 440 kts | 90° |
| 2026-04-25 19:33 | -51.86455 | -60.97579 | 27681 ft | 432 kts | 90° |
| 2026-04-25 19:33 | -51.86434 | -60.92747 | 27665 ft | 426 kts | 90° |
| 2026-04-25 19:33 | -51.86422 | -60.87968 | 27657 ft | 425 kts | 90° |
| 2026-04-25 19:33 | -51.86410 | -60.83182 | 27657 ft | 425 kts | 90° |
| 2026-04-25 19:34 | -51.86376 | -60.78390 | 27379 ft | 428 kts | 90° |
| 2026-04-25 19:34 | -51.86328 | -60.73576 | 26939 ft | 428 kts | 90° |
| 2026-04-25 19:34 | -51.86294 | -60.68770 | 26505 ft | 426 kts | 90° |
| 2026-04-25 19:34 | -51.86272 | -60.64011 | 26078 ft | 422 kts | 90° |
| 2026-04-25 19:35 | -51.86251 | -60.59295 | 25657 ft | 417 kts | 90° |
| 2026-04-25 19:35 | -51.86211 | -60.54677 | 25244 ft | 413 kts | 89° |
| 2026-04-25 19:35 | -51.86157 | -60.50069 | 24833 ft | 408 kts | 89° |
| 2026-04-25 19:35 | -51.86117 | -60.45504 | 24412 ft | 403 kts | 90° |
| 2026-04-25 19:36 | -51.86086 | -60.40999 | 24005 ft | 398 kts | 90° |
| 2026-04-25 19:36 | -51.86058 | -60.36561 | 23610 ft | 392 kts | 90° |
| 2026-04-25 19:36 | -51.86008 | -60.32171 | 23213 ft | 390 kts | 89° |
| 2026-04-25 19:36 | -51.85951 | -60.27760 | 22762 ft | 393 kts | 90° |
| 2026-04-25 19:37 | -51.85908 | -60.23341 | 22306 ft | 393 kts | 90° |
| 2026-04-25 19:37 | -51.85872 | -60.18927 | 21855 ft | 391 kts | 90° |
| 2026-04-25 19:37 | -51.85835 | -60.14548 | 21448 ft | 388 kts | 90° |
| 2026-04-25 19:37 | -51.85779 | -60.10210 | 21067 ft | 384 kts | 89° |
| 2026-04-25 19:38 | -51.85719 | -60.05915 | 20685 ft | 380 kts | 89° |
| 2026-04-25 19:38 | -51.85668 | -60.01645 | 20307 ft | 377 kts | 90° |
| 2026-04-25 19:38 | -51.85622 | -59.97430 | 19953 ft | 373 kts | 90° |
| 2026-04-25 19:38 | -51.85575 | -59.93247 | 19584 ft | 370 kts | 90° |
| 2026-04-25 19:39 | -51.85526 | -59.89106 | 19222 ft | 366 kts | 90° |
| 2026-04-25 19:39 | -51.85475 | -59.85004 | 18865 ft | 363 kts | 90° |
| 2026-04-25 19:39 | -51.85423 | -59.80953 | 18503 ft | 359 kts | 90° |
| 2026-04-25 19:39 | -51.85363 | -59.76973 | 18151 ft | 356 kts | 89° |
| 2026-04-25 19:40 | -51.85294 | -59.72989 | 17780 ft | 352 kts | 89° |
| 2026-04-25 19:40 | -51.85231 | -59.69040 | 17378 ft | 349 kts | 89° |
| 2026-04-25 19:40 | -51.85170 | -59.65127 | 16981 ft | 346 kts | 89° |
| 2026-04-25 19:40 | -51.85109 | -59.61247 | 16587 ft | 343 kts | 89° |
| 2026-04-25 19:41 | -51.85047 | -59.57415 | 16197 ft | 340 kts | 89° |
| 2026-04-25 19:41 | -51.84984 | -59.53608 | 15813 ft | 337 kts | 89° |
| 2026-04-25 19:41 | -51.84920 | -59.49840 | 15436 ft | 334 kts | 89° |
| 2026-04-25 19:41 | -51.84898 | -59.48570 | 15309 ft | 333 kts | 89° |
| 2026-04-25 19:42 | -51.84790 | -59.42382 | 14690 ft | 328 kts | 89° |
| 2026-04-25 19:42 | -51.84725 | -59.38708 | 14318 ft | 326 kts | 89° |
| 2026-04-25 19:42 | -51.84664 | -59.35112 | 13959 ft | 323 kts | 89° |
| 2026-04-25 19:42 | -51.84604 | -59.31494 | 13605 ft | 321 kts | 89° |
| 2026-04-25 19:43 | -51.84542 | -59.27894 | 13231 ft | 318 kts | 89° |
| 2026-04-25 19:43 | -51.84480 | -59.24338 | 12836 ft | 316 kts | 89° |
| 2026-04-25 19:43 | -51.84415 | -59.20763 | 12483 ft | 318 kts | 89° |
| 2026-04-25 19:43 | -51.84333 | -59.17186 | 12208 ft | 319 kts | 89° |
| 2026-04-25 19:44 | -51.84249 | -59.13602 | 11927 ft | 319 kts | 89° |
| 2026-04-25 19:44 | -51.84174 | -59.10017 | 11658 ft | 319 kts | 89° |
| 2026-04-25 19:44 | -51.84102 | -59.06419 | 11395 ft | 319 kts | 89° |
| 2026-04-25 19:44 | -51.84030 | -59.02835 | 11132 ft | 319 kts | 89° |
| 2026-04-25 19:45 | -51.83959 | -58.99246 | 10872 ft | 319 kts | 89° |
| 2026-04-25 19:45 | -51.83885 | -58.95675 | 10612 ft | 317 kts | 89° |
| 2026-04-25 19:45 | -51.83811 | -58.92125 | 10351 ft | 313 kts | 89° |
| 2026-04-25 19:45 | -51.83735 | -58.88627 | 10093 ft | 310 kts | 89° |
| 2026-04-25 19:46 | -51.83658 | -58.85156 | 9839 ft | 307 kts | 89° |
| 2026-04-25 19:46 | -51.83583 | -58.81753 | 9580 ft | 305 kts | 89° |
| 2026-04-25 19:46 | -51.83508 | -58.78285 | 9301 ft | 303 kts | 89° |
| 2026-04-25 19:46 | -51.83434 | -58.74895 | 9018 ft | 301 kts | 89° |
| 2026-04-25 19:47 | -51.83346 | -58.71521 | 8749 ft | 300 kts | 89° |
| 2026-04-25 19:47 | -51.83264 | -58.68164 | 8473 ft | 297 kts | 89° |
| 2026-04-25 19:47 | -51.83187 | -58.64899 | 8199 ft | 295 kts | 89° |
| 2026-04-25 19:47 | -51.83106 | -58.61552 | 7921 ft | 293 kts | 88° |
| 2026-04-25 19:48 | -51.83016 | -58.58309 | 7654 ft | 292 kts | 88° |
| 2026-04-25 19:48 | -51.82933 | -58.55026 | 7393 ft | 292 kts | 89° |
| 2026-04-25 19:48 | -51.82855 | -58.51751 | 7137 ft | 291 kts | 89° |
| 2026-04-25 19:48 | -51.82778 | -58.48477 | 6885 ft | 291 kts | 89° |
| 2026-04-25 19:49 | -51.82701 | -58.45199 | 6628 ft | 291 kts | 89° |
| 2026-04-25 19:49 | -51.82696 | -58.44095 | 6624 ft | 290 kts | 94° |
| 2026-04-25 19:49 | -51.83897 | -58.39182 | 6126 ft | 284 kts | 127° |
| 2026-04-25 19:49 | -51.85031 | -58.36581 | 5924 ft | 282 kts | 130° |
| 2026-04-25 19:50 | -51.87404 | -58.31570 | 5505 ft | 280 kts | 131° |
| 2026-04-25 19:50 | -51.88595 | -58.29098 | 5289 ft | 273 kts | 131° |
| 2026-04-25 19:50 | -51.89728 | -58.26711 | 5079 ft | 262 kts | 131° |
| 2026-04-25 19:51 | -51.90809 | -58.24412 | 4861 ft | 252 kts | 131° |
| 2026-04-25 19:51 | -51.91847 | -58.22185 | 4671 ft | 243 kts | 131° |
| 2026-04-25 19:51 | -51.92846 | -58.20032 | 4470 ft | 235 kts | 131° |
| 2026-04-25 19:51 | -51.93812 | -58.17941 | 4276 ft | 229 kts | 131° |
| 2026-04-25 19:52 | -51.94701 | -58.15877 | 4065 ft | 226 kts | 119° |
| 2026-04-25 19:52 | -51.94965 | -58.13395 | 3874 ft | 224 kts | 82° |
| 2026-04-25 19:52 | -51.94368 | -58.11161 | 3725 ft | 216 kts | 45° |
| 2026-04-25 19:52 | -51.93147 | -58.09886 | 3579 ft | 206 kts | 8° |
| 2026-04-25 19:53 | -51.91749 | -58.09497 | 3462 ft | 203 kts | 1° |
| 2026-04-25 19:53 | -51.90350 | -58.09309 | 3331 ft | 198 kts | 347° |
| 2026-04-25 19:53 | -51.89168 | -58.10183 | 3206 ft | 184 kts | 310° |
| 2026-04-25 19:53 | -51.88515 | -58.11888 | 3102 ft | 178 kts | 291° |
| 2026-04-25 19:54 | -51.88023 | -58.13674 | 2978 ft | 171 kts | 289° |
| 2026-04-25 19:54 | -51.87580 | -58.15416 | 2846 ft | 163 kts | 288° |
| 2026-04-25 19:54 | -51.87178 | -58.17071 | 2732 ft | 154 kts | 287° |
| 2026-04-25 19:54 | -51.87050 | -58.17616 | 2691 ft | 151 kts | 287° |
| 2026-04-25 19:55 | -51.86454 | -58.20234 | 2687 ft | 149 kts | 284° |
| 2026-04-25 19:55 | -51.86135 | -58.21839 | 2689 ft | 150 kts | 283° |
| 2026-04-25 19:55 | -51.85839 | -58.23458 | 2699 ft | 150 kts | 282° |
| 2026-04-25 19:55 | -51.85556 | -58.25086 | 2703 ft | 150 kts | 282° |
| 2026-04-25 19:56 | -51.85280 | -58.26720 | 2436 ft | 151 kts | 282° |
| 2026-04-25 19:56 | -51.85022 | -58.28259 | 2217 ft | 133 kts | 282° |
| 2026-04-25 19:56 | -51.84802 | -58.29525 | 2073 ft | 106 kts | 281° |
| 2026-04-25 19:56 | -51.84603 | -58.30744 | 1928 ft | 115 kts | 281° |
| 2026-04-25 19:57 | -51.84393 | -58.32017 | 1769 ft | 118 kts | 281° |
| 2026-04-25 19:57 | -51.84176 | -58.33296 | 1598 ft | 117 kts | 281° |
| 2026-04-25 19:57 | -51.83962 | -58.34567 | 1435 ft | 117 kts | 281° |
| 2026-04-25 19:57 | -51.83747 | -58.35843 | 1274 ft | 118 kts | 281° |
| 2026-04-25 19:58 | -51.83534 | -58.37124 | 1090 ft | 119 kts | 282° |
| 2026-04-25 19:58 | -51.83318 | -58.38427 | 912 ft | 121 kts | 283° |
| 2026-04-25 19:58 | -51.83084 | -58.39711 | 763 ft | 117 kts | 284° |
| 2026-04-25 19:58 | -51.82861 | -58.40964 | 622 ft | 115 kts | 283° |
| 2026-04-25 19:59 | -51.82659 | -58.42225 | 468 ft | 115 kts | 283° |
| 2026-04-25 19:59 | -51.82459 | -58.43473 | 321 ft | 116 kts | 283° |
| 2026-04-25 19:59 | -51.82247 | -58.44724 | 233 ft | 110 kts | 285° |
| 2026-04-25 19:59 | -51.82088 | -58.45681 | 222 ft | 71 kts | 284° |
| 2026-04-25 20:00 | -51.81979 | -58.46319 | 218 ft | 49 kts | 285° |
| 2026-04-25 20:00 | -51.81951 | -58.46489 | 218 ft | 43 kts | 283° |
| 2026-04-25 20:00 | -51.81856 | -58.47064 | 219 ft | 24 kts | 284° |
| 2026-04-25 20:00 | -51.81814 | -58.47304 | 219 ft | 22 kts | 287° |
| 2026-04-25 20:01 | -51.81921 | -58.47527 | 215 ft | 13 kts | 162° |
| 2026-04-25 20:01 | -51.81966 | -58.47413 | 221 ft | 13 kts | 107° |
| 2026-04-25 20:01 | -51.81991 | -58.47266 | 216 ft | 14 kts | 104° |
| 2026-04-25 20:02 | -51.82020 | -58.47099 | 217 ft | 16 kts | 106° |
| 2026-04-25 20:02 | -51.82065 | -58.46938 | 217 ft | 15 kts | 163° |
| 2026-04-25 20:02 | -51.82163 | -58.46971 | 218 ft | 8 kts | 195° |
| 2026-04-25 20:02 | -51.82176 | -58.46993 | 218 ft | 2 kts | 258° |
| 2026-04-25 20:03 | -51.82172 | -58.47023 | 219 ft | 4 kts | 287° |
| 2026-04-25 20:03 | -51.82172 | -58.47026 | 219 ft | 0 kts | 287° |